• Join FlightAware (Why Join?)
  • Login
  • US Flag 
01:46PM EDT


 

Airport Tracker/Info


-or-


 

Live Flight TrackerFlight Track Log ✈ CTL13 ✈ 19-Apr-2013 ✈ KMDW - KGRR

Flight Track Log - Related Links

Times and Time Zones

All times are in EDT time to prevent confusion due to time zone crossing. See the CTL13 flight status page for this flight to view local times or setup timezone preferences in your user account.

Time Position Orientation Groundspeed Altitude Reporting Facility
EDT Latitude Longitude Course Direction KTS MPH feet Rate Location/Type
11:35PM 41.8000 -87.7500 90° East 136 157 1,300  Level Chicago TRACON
11:36PM 41.8000 -87.7000 90° East 161 185 2,000 840 Climbing Chicago TRACON
11:37PM 41.8000 -87.6333 90° East 171 197 3,000 780 Climbing Chicago TRACON
11:38PM 41.8025 -87.5931 85° East 166 191 3,400 660 Climbing Chicago Center
11:39PM 41.8042 -87.5297 88° East 168 193 4,100 660 Climbing Chicago Center
11:40PM 41.8031 -87.4644 91° East 172 198 4,800 360 Climbing Chicago Center
11:41PM 41.7983 -87.3975 95° East 176 203 4,900  Climbing Chicago Center
11:42PM 41.7950 -87.3242 93° East 191 220 4,900  Level Chicago Center
11:43PM 41.7925 -87.2531 93° East 191 220 4,900  Level Chicago Center
11:44PM 41.7908 -87.1831 92° East 190 219 4,900 -60 Level Chicago Center
11:45PM 41.7900 -87.1164 91° East 183 211 4,800  Descending Chicago Center
11:46PM 41.7853 -87.0489 95° East 182 209 4,900 60 Climbing Chicago Center
11:47PM 41.8081 -86.9828 65° Northeast 169 194 5,000  Climbing Chicago Center
11:48PM 41.8414 -86.9397 44° Northeast 167 192 4,900 -60 Descending Chicago Center
11:49PM 41.8725 -86.8981 45° Northeast 162 186 4,900  Level Chicago Center
11:50PM 41.9053 -86.8542 45° Northeast 166 191 5,000  Climbing Chicago Center
11:51PM 41.9389 -86.8103 44° Northeast 168 193 4,900  Descending Chicago Center
11:52PM 41.9711 -86.7658 46° Northeast 168 193 5,000  Climbing Chicago Center
11:53PM 42.0036 -86.7211 46° Northeast 168 193 4,900  Descending Chicago Center
11:54PM 42.0367 -86.6714 48° Northeast 167 192 5,000  Climbing Chicago Center
11:55PM 42.0692 -86.6258 46° Northeast 169 194 4,900 -60 Descending Chicago Center
11:56PM 42.1022 -86.5817 45° Northeast 168 193 4,900  Level Chicago Center
11:57PM 42.1353 -86.5364 45° Northeast 168 193 4,900  Level Chicago Center
11:58PM 42.1692 -86.4931 43° Northeast 168 193 5,000  Climbing Chicago Center
11:59PM 42.2025 -86.4497 44° Northeast 168 193 5,000 -60 Level Chicago Center
12:00AM 42.2364 -86.4061 44° Northeast 168 193 4,900  Descending Chicago Center
12:01AM 42.2697 -86.3600 46° Northeast 171 197 5,000  Climbing Chicago Center
12:02AM 42.3086 -86.3069 45° Northeast 173 199 5,000  Level Chicago Center
12:03AM 42.3447 -86.2644 41° Northeast 173 199 5,100  Climbing Chicago Center
12:04AM 42.3767 -86.2200 46° Northeast 168 193 5,100  Level Chicago Center
12:05AM 42.4097 -86.1747 45° Northeast 169 194 5,100 -60 Level Chicago Center
12:06AM 42.4433 -86.1294 45° Northeast 170 196 5,000  Descending Chicago Center
12:07AM 42.4769 -86.0847 44° Northeast 171 197 5,100  Climbing Chicago Center
12:08AM 42.5097 -86.0392 46° Northeast 170 196 5,000  Descending Chicago Center
12:09AM 42.5419 -85.9931 47° Northeast 170 196 5,100  Climbing Chicago Center
12:10AM 42.5744 -85.9472 46° Northeast 170 196 5,000  Descending Chicago Center
12:11AM 42.6075 -85.8997 47° Northeast 172 198 5,100 -300 Climbing Chicago Center
12:12AM 42.6417 -85.8517 46° Northeast 176 203 4,500 -600 Descending Chicago Center
12:13AM 42.6864 -85.7944 43° Northeast 184 212 4,000 -600 Descending Chicago Center
12:14AM 42.7222 -85.7464 45° Northeast 182 209 3,400 -600 Descending Chicago Center